PWSweather.com
Personal Weather Stations
Station Observations
WD4JKH
Forsyth, GA 31029

Forsyth, GA 31029

Lat: 33.033225, Lon: -83.927995

Elevation: 709

Station Type: Davis Vantage VUE

High Low Average
Temperature 70.4°F21.3°C 52.0°F11.1°C 62.8°F17.1°C
Dew Point 62.9°F17.2°C 49.1°F9.5°C 57.6°F14.2°C
Winds 9.4 mph 15.1 kmh Calm Calm 4.0 mph SW6.4 kmh SW
Wind Gusts 19.0 mph30.6 kmh 1.0 mph1.6 kmh 11.0 mph17.7 kmh
Humidity 97% 64% 84%
Pressure 29.88 in1011.9 mb 29.73 in1006.8 mb -
Precipitation 0.16 in4.1 mm - -
Hour Temp Dew Point Humidity Winds Wind Gusts Pressure Precip Precip Rate Daily Precip Total
12:02 AM 58.0°F14.4°C 57.1°F13.9°C 97% 3.4 mph SSW5.5 kmh SSW 8.0 mph12.9 kmh 29.82 in1009.8 mb 0.03 in0.8 mm 0.90 in22.9 mm 0.07 in1.8 mm
12:07 AM 58.0°F14.4°C 57.1°F13.9°C 97% 2.9 mph SW4.7 kmh SW 8.0 mph12.9 kmh 29.81 in1009.5 mb 0.04 in1.0 mm 0.12 in3.0 mm 0.01 in0.3 mm
12:12 AM 58.0°F14.4°C 57.1°F13.9°C 97% 2.1 mph SW3.4 kmh SW 10.0 mph16.1 kmh 29.81 in1009.5 mb 0.04 in1.0 mm 0.00 in0.0 mm 0.01 in0.3 mm
12:17 AM 58.1°F14.5°C 57.2°F14.0°C 97% 3.4 mph SSW5.5 kmh SSW 10.0 mph16.1 kmh 29.81 in1009.5 mb 0.05 in1.3 mm 0.12 in3.0 mm 0.02 in0.5 mm
12:22 AM 58.1°F14.5°C 57.2°F14.0°C 97% 3.7 mph SW6.0 kmh SW 10.0 mph16.1 kmh 29.81 in1009.5 mb 0.05 in1.3 mm 0.00 in0.0 mm 0.02 in0.5 mm
12:27 AM 58.1°F14.5°C 57.2°F14.0°C 97% 2.9 mph SSW4.7 kmh SSW 8.0 mph12.9 kmh 29.81 in1009.5 mb 0.06 in1.5 mm 0.12 in3.0 mm 0.03 in0.8 mm
12:32 AM 58.1°F14.5°C 57.3°F14.1°C 97% 3.4 mph SW5.5 kmh SW 10.0 mph16.1 kmh 29.81 in1009.5 mb 0.07 in1.8 mm 0.12 in3.0 mm 0.04 in1.0 mm
12:37 AM 58.2°F14.6°C 57.4°F14.1°C 97% 3.8 mph SW6.1 kmh SW 10.0 mph16.1 kmh 29.80 in1009.1 mb 0.06 in1.5 mm 0.00 in0.0 mm 0.04 in1.0 mm
12:42 AM 58.2°F14.6°C 57.4°F14.1°C 97% 5.2 mph SW8.4 kmh SW 10.0 mph16.1 kmh 29.80 in1009.1 mb 0.06 in1.5 mm 0.00 in0.0 mm 0.04 in1.0 mm
12:47 AM 58.2°F14.6°C 57.3°F14.1°C 97% 2.6 mph SW4.2 kmh SW 10.0 mph16.1 kmh 29.80 in1009.1 mb 0.07 in1.8 mm 0.12 in3.0 mm 0.05 in1.3 mm
12:52 AM 58.2°F14.6°C 57.4°F14.1°C 97% 3.4 mph SW5.5 kmh SW 9.0 mph14.5 kmh 29.80 in1009.1 mb 0.07 in1.8 mm 0.00 in0.0 mm 0.05 in1.3 mm
12:57 AM 58.3°F14.6°C 57.5°F14.2°C 97% 2.8 mph SW4.5 kmh SW 9.0 mph14.5 kmh 29.80 in1009.1 mb 0.07 in1.8 mm 0.00 in0.0 mm 0.06 in1.5 mm
01:02 AM 58.2°F14.6°C 57.3°F14.1°C 97% 4.9 mph SW7.9 kmh SW 11.0 mph17.7 kmh 29.80 in1009.1 mb 0.07 in1.8 mm 0.00 in0.0 mm 0.07 in1.8 mm
01:07 AM 58.3°F14.6°C 57.4°F14.1°C 97% 5.7 mph SSW9.2 kmh SSW 11.0 mph17.7 kmh 29.80 in1009.1 mb 0.06 in1.5 mm 0.00 in0.0 mm 0.07 in1.8 mm
01:12 AM 58.3°F14.6°C 57.4°F14.1°C 97% 3.6 mph SW5.8 kmh SW 12.0 mph19.3 kmh 29.80 in1009.1 mb 0.07 in1.8 mm 0.12 in3.0 mm 0.08 in2.0 mm
01:17 AM 58.3°F14.6°C 57.4°F14.1°C 97% 5.4 mph SW8.7 kmh SW 12.0 mph19.3 kmh 29.79 in1008.8 mb 0.07 in1.8 mm 0.00 in0.0 mm 0.09 in2.3 mm
01:22 AM 58.3°F14.6°C 57.4°F14.1°C 97% 4.5 mph SSW7.2 kmh SSW 12.0 mph19.3 kmh 29.79 in1008.8 mb 0.07 in1.8 mm 0.00 in0.0 mm 0.09 in2.3 mm
01:27 AM 58.3°F14.6°C 57.4°F14.1°C 97% 4.7 mph SSW7.6 kmh SSW 12.0 mph19.3 kmh 29.79 in1008.8 mb 0.06 in1.5 mm 0.00 in0.0 mm 0.09 in2.3 mm
01:32 AM 58.4°F14.7°C 57.5°F14.2°C 97% 6.2 mph SW10.0 kmh SW 12.0 mph19.3 kmh 29.78 in1008.5 mb 0.07 in1.8 mm 0.12 in3.0 mm 0.11 in2.8 mm
01:37 AM 58.4°F14.7°C 57.5°F14.2°C 97% 4.4 mph SW7.1 kmh SW 12.0 mph19.3 kmh 29.78 in1008.5 mb 0.08 in2.0 mm 0.12 in3.0 mm 0.12 in3.0 mm
01:42 AM 58.5°F14.7°C 57.6°F14.2°C 97% 5.8 mph SSW9.3 kmh SSW 12.0 mph19.3 kmh 29.79 in1008.8 mb 0.08 in2.0 mm 0.00 in0.0 mm 0.12 in3.0 mm
01:47 AM 58.6°F14.8°C 57.7°F14.3°C 97% 6.2 mph SW10.0 kmh SW 12.0 mph19.3 kmh 29.79 in1008.8 mb 0.07 in1.8 mm 0.00 in0.0 mm 0.12 in3.0 mm
01:52 AM 58.6°F14.8°C 57.7°F14.3°C 97% 5.7 mph SW9.2 kmh SW 12.0 mph19.3 kmh 29.79 in1008.8 mb 0.07 in1.8 mm 0.00 in0.0 mm 0.12 in3.0 mm
01:57 AM 58.7°F14.8°C 57.8°F14.3°C 97% 8.4 mph SW13.5 kmh SW 16.0 mph25.7 kmh 29.78 in1008.5 mb 0.07 in1.8 mm 0.00 in0.0 mm 0.13 in3.3 mm
02:02 AM 58.7°F14.8°C 57.9°F14.4°C 97% 8.3 mph SW13.4 kmh SW 17.0 mph27.4 kmh 29.77 in1008.1 mb 0.06 in1.5 mm 0.00 in0.0 mm 0.13 in3.3 mm
02:07 AM 58.8°F14.9°C 58.0°F14.4°C 97% 9.0 mph SW14.5 kmh SW 17.0 mph27.4 kmh 29.78 in1008.5 mb 0.07 in1.8 mm 0.12 in3.0 mm 0.14 in3.6 mm
02:12 AM 58.9°F14.9°C 58.0°F14.4°C 97% 6.9 mph SW11.1 kmh SW 17.0 mph27.4 kmh 29.78 in1008.5 mb 0.06 in1.5 mm 0.00 in0.0 mm 0.14 in3.6 mm
02:17 AM 58.9°F14.9°C 58.0°F14.4°C 97% 6.8 mph SW10.9 kmh SW 17.0 mph27.4 kmh 29.77 in1008.1 mb 0.05 in1.3 mm 0.00 in0.0 mm 0.14 in3.6 mm
02:21 AM 59.0°F15.0°C 58.1°F14.5°C 97% 6.7 mph SW10.8 kmh SW 17.0 mph27.4 kmh 29.77 in1008.1 mb 0.06 in1.5 mm 0.15 in3.8 mm 0.15 in3.8 mm
02:26 AM 59.0°F15.0°C 58.1°F14.5°C 97% 8.2 mph SW13.2 kmh SW 15.0 mph24.1 kmh 29.76 in1007.8 mb 0.06 in1.5 mm 0.00 in0.0 mm 0.15 in3.8 mm
02:31 AM 59.0°F15.0°C 58.1°F14.5°C 97% 7.3 mph SW11.7 kmh SW 16.0 mph25.7 kmh 29.77 in1008.1 mb 0.05 in1.3 mm 0.00 in0.0 mm 0.15 in3.8 mm
02:36 AM 59.1°F15.1°C 58.2°F14.6°C 97% 5.9 mph SW9.5 kmh SW 16.0 mph25.7 kmh 29.76 in1007.8 mb 0.04 in1.0 mm 0.00 in0.0 mm 0.15 in3.8 mm
02:41 AM 59.1°F15.1°C 58.2°F14.6°C 97% 5.7 mph SW9.2 kmh SW 16.0 mph25.7 kmh 29.76 in1007.8 mb 0.03 in0.8 mm 0.00 in0.0 mm 0.15 in3.8 mm
02:46 AM 59.1°F15.1°C 58.2°F14.6°C 97% 6.7 mph SW10.8 kmh SW 16.0 mph25.7 kmh 29.76 in1007.8 mb 0.03 in0.8 mm 0.00 in0.0 mm 0.15 in3.8 mm
02:51 AM 59.2°F15.1°C 58.3°F14.6°C 97% 5.0 mph SW8.0 kmh SW 17.0 mph27.4 kmh 29.76 in1007.8 mb 0.03 in0.8 mm 0.00 in0.0 mm 0.15 in3.8 mm
02:56 AM 59.2°F15.1°C 58.3°F14.6°C 97% 5.4 mph SW8.7 kmh SW 17.0 mph27.4 kmh 29.76 in1007.8 mb 0.02 in0.5 mm 0.00 in0.0 mm 0.15 in3.8 mm
03:01 AM 59.2°F15.1°C 58.3°F14.6°C 97% 4.5 mph SW7.2 kmh SW 17.0 mph27.4 kmh 29.76 in1007.8 mb 0.02 in0.5 mm 0.00 in0.0 mm 0.15 in3.8 mm
03:06 AM 59.2°F15.1°C 58.3°F14.6°C 97% 7.3 mph SW11.7 kmh SW 14.0 mph22.5 kmh 29.76 in1007.8 mb 0.01 in0.3 mm 0.00 in0.0 mm 0.15 in3.8 mm
03:11 AM 59.2°F15.1°C 58.3°F14.6°C 97% 5.3 mph SW8.5 kmh SW 14.0 mph22.5 kmh 29.76 in1007.8 mb 0.01 in0.3 mm 0.00 in0.0 mm 0.15 in3.8 mm
03:16 AM 59.2°F15.1°C 58.3°F14.6°C 97% 7.0 mph SW11.3 kmh SW 18.0 mph29.0 kmh 29.75 in1007.5 mb 0.01 in0.3 mm 0.00 in0.0 mm 0.15 in3.8 mm
03:21 AM 59.3°F15.2°C 58.4°F14.7°C 97% 7.1 mph SW11.4 kmh SW 18.0 mph29.0 kmh 29.75 in1007.5 mb 0.00 in0.0 mm 0.00 in0.0 mm 0.15 in3.8 mm
03:26 AM 59.3°F15.2°C 58.4°F14.7°C 97% 7.7 mph SW12.4 kmh SW 18.0 mph29.0 kmh 29.75 in1007.5 mb 0.00 in0.0 mm 0.00 in0.0 mm 0.15 in3.8 mm
03:31 AM 59.3°F15.2°C 58.4°F14.7°C 97% 6.8 mph SW10.9 kmh SW 18.0 mph29.0 kmh 29.75 in1007.5 mb 0.00 in0.0 mm 0.00 in0.0 mm 0.15 in3.8 mm
03:36 AM 59.3°F15.2°C 58.4°F14.7°C 97% 6.4 mph SW10.3 kmh SW 16.0 mph25.7 kmh 29.75 in1007.5 mb 0.00 in0.0 mm 0.00 in0.0 mm 0.15 in3.8 mm
03:41 AM 59.4°F15.2°C 58.5°F14.7°C 97% 5.9 mph SW9.5 kmh SW 16.0 mph25.7 kmh 29.75 in1007.5 mb 0.00 in0.0 mm 0.00 in0.0 mm 0.15 in3.8 mm
03:46 AM 59.4°F15.2°C 58.5°F14.7°C 97% 4.3 mph SW6.9 kmh SW 16.0 mph25.7 kmh 29.75 in1007.5 mb 0.00 in0.0 mm 0.00 in0.0 mm 0.15 in3.8 mm
03:51 AM 59.4°F15.2°C 58.5°F14.7°C 97% 4.5 mph SW7.2 kmh SW 14.0 mph22.5 kmh 29.75 in1007.5 mb 0.00 in0.0 mm 0.00 in0.0 mm 0.15 in3.8 mm
03:56 AM 59.5°F15.3°C 58.6°F14.8°C 97% 3.7 mph SW6.0 kmh SW 15.0 mph24.1 kmh 29.74 in1007.1 mb 0.00 in0.0 mm 0.00 in0.0 mm 0.15 in3.8 mm
04:01 AM 59.6°F15.3°C 58.7°F14.8°C 97% 6.4 mph SW10.3 kmh SW 15.0 mph24.1 kmh 29.74 in1007.1 mb 0.00 in0.0 mm 0.00 in0.0 mm 0.15 in3.8 mm
04:06 AM 59.6°F15.3°C 58.7°F14.8°C 97% 6.9 mph WSW11.1 kmh WSW 15.0 mph24.1 kmh 29.74 in1007.1 mb 0.00 in0.0 mm 0.00 in0.0 mm 0.15 in3.8 mm
04:11 AM 59.7°F15.4°C 58.8°F14.9°C 97% 5.4 mph SW8.7 kmh SW 14.0 mph22.5 kmh 29.74 in1007.1 mb 0.00 in0.0 mm 0.00 in0.0 mm 0.15 in3.8 mm
04:16 AM 59.8°F15.4°C 58.9°F14.9°C 97% 5.0 mph SW8.0 kmh SW 14.0 mph22.5 kmh 29.74 in1007.1 mb 0.00 in0.0 mm 0.00 in0.0 mm 0.15 in3.8 mm
04:21 AM 59.9°F15.5°C 59.0°F15.0°C 97% 4.7 mph SW7.6 kmh SW 14.0 mph22.5 kmh 29.74 in1007.1 mb 0.00 in0.0 mm 0.00 in0.0 mm 0.15 in3.8 mm
04:26 AM 60.0°F15.6°C 59.1°F15.1°C 97% 6.2 mph SW10.0 kmh SW 16.0 mph25.7 kmh 29.74 in1007.1 mb 0.00 in0.0 mm 0.00 in0.0 mm 0.15 in3.8 mm
04:31 AM 60.0°F15.6°C 58.9°F14.9°C 96% 5.0 mph SW8.0 kmh SW 16.0 mph25.7 kmh 29.74 in1007.1 mb 0.00 in0.0 mm 0.00 in0.0 mm 0.15 in3.8 mm
04:36 AM 60.1°F15.6°C 58.9°F14.9°C 96% 5.4 mph SW8.7 kmh SW 16.0 mph25.7 kmh 29.74 in1007.1 mb 0.00 in0.0 mm 0.00 in0.0 mm 0.15 in3.8 mm
04:41 AM 60.2°F15.7°C 59.0°F15.0°C 96% 5.8 mph SW9.3 kmh SW 16.0 mph25.7 kmh 29.74 in1007.1 mb 0.00 in0.0 mm 0.00 in0.0 mm 0.15 in3.8 mm
04:46 AM 60.2°F15.7°C 59.0°F15.0°C 96% 5.2 mph SW8.4 kmh SW 15.0 mph24.1 kmh 29.74 in1007.1 mb 0.00 in0.0 mm 0.00 in0.0 mm 0.15 in3.8 mm
04:51 AM 60.3°F15.7°C 59.1°F15.1°C 96% 8.2 mph WSW13.2 kmh WSW 15.0 mph24.1 kmh 29.74 in1007.1 mb 0.00 in0.0 mm 0.00 in0.0 mm 0.15 in3.8 mm
04:56 AM 60.3°F15.7°C 59.1°F15.1°C 96% 9.2 mph SW14.8 kmh SW 15.0 mph24.1 kmh 29.74 in1007.1 mb 0.00 in0.0 mm 0.00 in0.0 mm 0.15 in3.8 mm
05:01 AM 60.4°F15.8°C 59.2°F15.1°C 96% 6.9 mph SW11.1 kmh SW 15.0 mph24.1 kmh 29.74 in1007.1 mb 0.00 in0.0 mm 0.00 in0.0 mm 0.15 in3.8 mm
05:06 AM 60.5°F15.8°C 59.3°F15.2°C 96% 7.6 mph SW12.2 kmh SW 15.0 mph24.1 kmh 29.74 in1007.1 mb 0.00 in0.0 mm 0.00 in0.0 mm 0.15 in3.8 mm
05:11 AM 60.5°F15.8°C 59.3°F15.2°C 96% 6.7 mph SW10.8 kmh SW 15.0 mph24.1 kmh 29.74 in1007.1 mb 0.00 in0.0 mm 0.00 in0.0 mm 0.15 in3.8 mm
05:16 AM 60.6°F15.9°C 59.4°F15.2°C 96% 5.4 mph SW8.7 kmh SW 17.0 mph27.4 kmh 29.73 in1006.8 mb 0.00 in0.0 mm 0.00 in0.0 mm 0.15 in3.8 mm
05:21 AM 60.7°F15.9°C 59.5°F15.3°C 96% 4.9 mph SW7.9 kmh SW 17.0 mph27.4 kmh 29.74 in1007.1 mb 0.00 in0.0 mm 0.00 in0.0 mm 0.15 in3.8 mm
05:26 AM 60.8°F16.0°C 59.6°F15.3°C 96% 7.5 mph SW12.1 kmh SW 19.0 mph30.6 kmh 29.73 in1006.8 mb 0.00 in0.0 mm 0.00 in0.0 mm 0.15 in3.8 mm
05:31 AM 60.8°F16.0°C 59.3°F15.2°C 95% 7.7 mph SW12.4 kmh SW 19.0 mph30.6 kmh 29.73 in1006.8 mb 0.00 in0.0 mm 0.00 in0.0 mm 0.15 in3.8 mm
05:36 AM 60.9°F16.1°C 59.4°F15.2°C 95% 5.1 mph SW8.2 kmh SW 19.0 mph30.6 kmh 29.74 in1007.1 mb 0.00 in0.0 mm 0.00 in0.0 mm 0.15 in3.8 mm
05:41 AM 60.9°F16.1°C 59.4°F15.2°C 95% 6.6 mph WSW10.6 kmh WSW 19.0 mph30.6 kmh 29.74 in1007.1 mb 0.00 in0.0 mm 0.00 in0.0 mm 0.15 in3.8 mm
05:46 AM 60.9°F16.1°C 59.4°F15.2°C 95% 3.4 mph SW5.5 kmh SW 17.0 mph27.4 kmh 29.74 in1007.1 mb 0.00 in0.0 mm 0.00 in0.0 mm 0.15 in3.8 mm
05:51 AM 61.0°F16.1°C 59.5°F15.3°C 95% 3.1 mph WSW5.0 kmh WSW 15.0 mph24.1 kmh 29.74 in1007.1 mb 0.00 in0.0 mm 0.00 in0.0 mm 0.15 in3.8 mm
05:56 AM 61.1°F16.2°C 59.6°F15.3°C 95% 9.1 mph SW14.6 kmh SW 17.0 mph27.4 kmh 29.74 in1007.1 mb 0.00 in0.0 mm 0.00 in0.0 mm 0.15 in3.8 mm
06:01 AM 61.2°F16.2°C 59.7°F15.4°C 95% 7.8 mph WSW12.6 kmh WSW 17.0 mph27.4 kmh 29.74 in1007.1 mb 0.00 in0.0 mm 0.00 in0.0 mm 0.15 in3.8 mm
06:06 AM 61.2°F16.2°C 59.7°F15.4°C 95% 7.5 mph WSW12.1 kmh WSW 17.0 mph27.4 kmh 29.74 in1007.1 mb 0.00 in0.0 mm 0.00 in0.0 mm 0.15 in3.8 mm
06:11 AM 61.2°F16.2°C 59.7°F15.4°C 95% 7.1 mph WSW11.4 kmh WSW 17.0 mph27.4 kmh 29.74 in1007.1 mb 0.00 in0.0 mm 0.00 in0.0 mm 0.15 in3.8 mm
06:16 AM 61.2°F16.2°C 59.7°F15.4°C 95% 6.4 mph WSW10.3 kmh WSW 16.0 mph25.7 kmh 29.73 in1006.8 mb 0.00 in0.0 mm 0.00 in0.0 mm 0.15 in3.8 mm
06:21 AM 61.2°F16.2°C 59.7°F15.4°C 95% 5.9 mph SW9.5 kmh SW 16.0 mph25.7 kmh 29.74 in1007.1 mb 0.00 in0.0 mm 0.00 in0.0 mm 0.15 in3.8 mm
06:26 AM 61.2°F16.2°C 59.8°F15.4°C 95% 6.2 mph WSW10.0 kmh WSW 16.0 mph25.7 kmh 29.74 in1007.1 mb 0.00 in0.0 mm 0.00 in0.0 mm 0.15 in3.8 mm
06:31 AM 61.3°F16.3°C 59.9°F15.5°C 95% 6.9 mph SW11.1 kmh SW 16.0 mph25.7 kmh 29.74 in1007.1 mb 0.00 in0.0 mm 0.00 in0.0 mm 0.15 in3.8 mm
06:36 AM 61.3°F16.3°C 59.8°F15.4°C 95% 3.7 mph WSW6.0 kmh WSW 14.0 mph22.5 kmh 29.75 in1007.5 mb 0.00 in0.0 mm 0.00 in0.0 mm 0.15 in3.8 mm
06:41 AM 61.3°F16.3°C 59.8°F15.4°C 95% 5.7 mph SW9.2 kmh SW 15.0 mph24.1 kmh 29.74 in1007.1 mb 0.00 in0.0 mm 0.00 in0.0 mm 0.15 in3.8 mm
06:46 AM 61.3°F16.3°C 59.8°F15.4°C 95% 3.1 mph SW5.0 kmh SW 15.0 mph24.1 kmh 29.74 in1007.1 mb 0.00 in0.0 mm 0.00 in0.0 mm 0.15 in3.8 mm
06:51 AM 61.4°F16.3°C 59.9°F15.5°C 95% 6.3 mph SW10.1 kmh SW 15.0 mph24.1 kmh 29.75 in1007.5 mb 0.00 in0.0 mm 0.00 in0.0 mm 0.15 in3.8 mm
06:56 AM 61.4°F16.3°C 59.9°F15.5°C 95% 4.5 mph WSW7.2 kmh WSW 15.0 mph24.1 kmh 29.75 in1007.5 mb 0.00 in0.0 mm 0.00 in0.0 mm 0.15 in3.8 mm
07:01 AM 61.4°F16.3°C 59.9°F15.5°C 95% 4.7 mph SW7.6 kmh SW 14.0 mph22.5 kmh 29.75 in1007.5 mb 0.00 in0.0 mm 0.00 in0.0 mm 0.15 in3.8 mm
07:06 AM 61.4°F16.3°C 59.9°F15.5°C 95% 5.2 mph SW8.4 kmh SW 14.0 mph22.5 kmh 29.75 in1007.5 mb 0.00 in0.0 mm 0.00 in0.0 mm 0.15 in3.8 mm
07:11 AM 61.4°F16.3°C 59.9°F15.5°C 95% 4.9 mph SW7.9 kmh SW 13.0 mph20.9 kmh 29.75 in1007.5 mb 0.00 in0.0 mm 0.00 in0.0 mm 0.15 in3.8 mm
07:16 AM 61.5°F16.4°C 60.0°F15.6°C 95% 7.6 mph SW12.2 kmh SW 13.0 mph20.9 kmh 29.75 in1007.5 mb 0.00 in0.0 mm 0.00 in0.0 mm 0.15 in3.8 mm
07:21 AM 61.6°F16.4°C 60.1°F15.6°C 95% 6.5 mph SW10.5 kmh SW 12.0 mph19.3 kmh 29.75 in1007.5 mb 0.00 in0.0 mm 0.00 in0.0 mm 0.15 in3.8 mm
07:26 AM 61.6°F16.4°C 60.1°F15.6°C 95% 4.0 mph SW6.4 kmh SW 12.0 mph19.3 kmh 29.75 in1007.5 mb 0.00 in0.0 mm 0.00 in0.0 mm 0.15 in3.8 mm
07:31 AM 61.6°F16.4°C 60.1°F15.6°C 95% 6.4 mph SW10.3 kmh SW 14.0 mph22.5 kmh 29.75 in1007.5 mb 0.00 in0.0 mm 0.00 in0.0 mm 0.15 in3.8 mm
07:36 AM 61.6°F16.4°C 60.1°F15.6°C 95% 7.1 mph WSW11.4 kmh WSW 14.0 mph22.5 kmh 29.76 in1007.8 mb 0.00 in0.0 mm 0.00 in0.0 mm 0.15 in3.8 mm
07:41 AM 61.7°F16.5°C 60.3°F15.7°C 95% 3.6 mph SW5.8 kmh SW 14.0 mph22.5 kmh 29.76 in1007.8 mb 0.00 in0.0 mm 0.00 in0.0 mm 0.15 in3.8 mm
07:46 AM 61.7°F16.5°C 60.2°F15.7°C 95% 4.3 mph SW6.9 kmh SW 14.0 mph22.5 kmh 29.76 in1007.8 mb 0.00 in0.0 mm 0.00 in0.0 mm 0.15 in3.8 mm
07:51 AM 61.7°F16.5°C 60.2°F15.7°C 95% 3.9 mph SW6.3 kmh SW 13.0 mph20.9 kmh 29.76 in1007.8 mb 0.00 in0.0 mm 0.00 in0.0 mm 0.15 in3.8 mm
07:56 AM 61.8°F16.6°C 60.3°F15.7°C 95% 3.8 mph SW6.1 kmh SW 13.0 mph20.9 kmh 29.76 in1007.8 mb 0.00 in0.0 mm 0.00 in0.0 mm 0.15 in3.8 mm
08:01 AM 61.8°F16.6°C 60.3°F15.7°C 95% 3.9 mph SW6.3 kmh SW 13.0 mph20.9 kmh 29.76 in1007.8 mb 0.00 in0.0 mm 0.00 in0.0 mm 0.15 in3.8 mm
08:06 AM 61.8°F16.6°C 60.3°F15.7°C 95% 3.6 mph SW5.8 kmh SW 13.0 mph20.9 kmh 29.76 in1007.8 mb 0.00 in0.0 mm 0.00 in0.0 mm 0.15 in3.8 mm
08:11 AM 61.8°F16.6°C 60.3°F15.7°C 95% 6.3 mph SW10.1 kmh SW 14.0 mph22.5 kmh 29.75 in1007.5 mb 0.00 in0.0 mm 0.00 in0.0 mm 0.15 in3.8 mm
08:16 AM 61.8°F16.6°C 60.3°F15.7°C 95% 6.4 mph SW10.3 kmh SW 16.0 mph25.7 kmh 29.75 in1007.5 mb 0.00 in0.0 mm 0.00 in0.0 mm 0.15 in3.8 mm
08:20 AM 61.9°F16.6°C 60.4°F15.8°C 95% 5.8 mph SW9.3 kmh SW 16.0 mph25.7 kmh 29.76 in1007.8 mb 0.00 in0.0 mm 0.00 in0.0 mm 0.15 in3.8 mm
08:25 AM 62.0°F16.7°C 60.5°F15.8°C 95% 5.1 mph WSW8.2 kmh WSW 16.0 mph25.7 kmh 29.76 in1007.8 mb 0.00 in0.0 mm 0.00 in0.0 mm 0.15 in3.8 mm
08:30 AM 62.1°F16.7°C 60.6°F15.9°C 95% 3.2 mph WSW5.1 kmh WSW 16.0 mph25.7 kmh 29.77 in1008.1 mb 0.00 in0.0 mm 0.00 in0.0 mm 0.15 in3.8 mm
08:35 AM 62.1°F16.7°C 60.6°F15.9°C 95% 5.4 mph WSW8.7 kmh WSW 13.0 mph20.9 kmh 29.77 in1008.1 mb 0.00 in0.0 mm 0.00 in0.0 mm 0.15 in3.8 mm
08:40 AM 62.2°F16.8°C 60.7°F15.9°C 95% 2.4 mph WSW3.9 kmh WSW 12.0 mph19.3 kmh 29.77 in1008.1 mb 0.00 in0.0 mm 0.00 in0.0 mm 0.15 in3.8 mm
08:45 AM 62.2°F16.8°C 60.4°F15.8°C 94% 3.5 mph WSW5.6 kmh WSW 15.0 mph24.1 kmh 29.77 in1008.1 mb 0.00 in0.0 mm 0.00 in0.0 mm 0.15 in3.8 mm
08:50 AM 62.4°F16.9°C 60.6°F15.9°C 94% 2.3 mph SW3.7 kmh SW 15.0 mph24.1 kmh 29.77 in1008.1 mb 0.00 in0.0 mm 0.00 in0.0 mm 0.15 in3.8 mm
08:55 AM 62.5°F16.9°C 60.7°F15.9°C 94% 4.2 mph SW6.8 kmh SW 15.0 mph24.1 kmh 29.77 in1008.1 mb 0.00 in0.0 mm 0.00 in0.0 mm 0.15 in3.8 mm
09:00 AM 62.6°F17.0°C 60.8°F16.0°C 94% 4.7 mph SW7.6 kmh SW 15.0 mph24.1 kmh 29.78 in1008.5 mb 0.00 in0.0 mm 0.00 in0.0 mm 0.15 in3.8 mm
09:05 AM 62.8°F17.1°C 61.0°F16.1°C 94% 4.9 mph WSW7.9 kmh WSW 14.0 mph22.5 kmh 29.77 in1008.1 mb 0.00 in0.0 mm 0.00 in0.0 mm 0.15 in3.8 mm
09:10 AM 63.0°F17.2°C 60.9°F16.1°C 93% 3.6 mph SW5.8 kmh SW 14.0 mph22.5 kmh 29.77 in1008.1 mb 0.00 in0.0 mm 0.00 in0.0 mm 0.15 in3.8 mm
09:15 AM 63.2°F17.3°C 61.1°F16.2°C 93% 6.9 mph WSW11.1 kmh WSW 14.0 mph22.5 kmh 29.77 in1008.1 mb 0.00 in0.0 mm 0.00 in0.0 mm 0.15 in3.8 mm
09:20 AM 63.3°F17.4°C 61.2°F16.2°C 93% 3.3 mph SW5.3 kmh SW 14.0 mph22.5 kmh 29.78 in1008.5 mb 0.00 in0.0 mm 0.00 in0.0 mm 0.15 in3.8 mm
09:25 AM 63.3°F17.4°C 61.2°F16.2°C 93% 4.3 mph WSW6.9 kmh WSW 12.0 mph19.3 kmh 29.78 in1008.5 mb 0.00 in0.0 mm 0.00 in0.0 mm 0.15 in3.8 mm
09:30 AM 63.2°F17.3°C 61.1°F16.2°C 93% 5.5 mph WSW8.9 kmh WSW 13.0 mph20.9 kmh 29.78 in1008.5 mb 0.00 in0.0 mm 0.00 in0.0 mm 0.15 in3.8 mm
09:35 AM 63.2°F17.3°C 61.1°F16.2°C 93% 6.7 mph WSW10.8 kmh WSW 13.0 mph20.9 kmh 29.78 in1008.5 mb 0.00 in0.0 mm 0.00 in0.0 mm 0.15 in3.8 mm
09:40 AM 63.3°F17.4°C 60.9°F16.1°C 92% 6.1 mph WSW9.8 kmh WSW 13.0 mph20.9 kmh 29.78 in1008.5 mb 0.00 in0.0 mm 0.00 in0.0 mm 0.15 in3.8 mm
09:45 AM 63.2°F17.3°C 61.1°F16.2°C 93% 3.0 mph WSW4.8 kmh WSW 13.0 mph20.9 kmh 29.78 in1008.5 mb 0.00 in0.0 mm 0.00 in0.0 mm 0.15 in3.8 mm
09:50 AM 63.2°F17.3°C 61.1°F16.2°C 93% 2.9 mph WSW4.7 kmh WSW 12.0 mph19.3 kmh 29.78 in1008.5 mb 0.00 in0.0 mm 0.00 in0.0 mm 0.15 in3.8 mm
09:55 AM 63.1°F17.3°C 61.0°F16.1°C 93% 2.7 mph WSW4.3 kmh WSW 11.0 mph17.7 kmh 29.78 in1008.5 mb 0.00 in0.0 mm 0.00 in0.0 mm 0.15 in3.8 mm
10:00 AM 63.1°F17.3°C 61.3°F16.3°C 94% 2.9 mph WSW4.7 kmh WSW 9.0 mph14.5 kmh 29.78 in1008.5 mb 0.00 in0.0 mm 0.00 in0.0 mm 0.15 in3.8 mm
10:05 AM 62.9°F17.2°C 61.1°F16.2°C 94% 2.3 mph WNW3.7 kmh WNW 9.0 mph14.5 kmh 29.79 in1008.8 mb 0.00 in0.0 mm 0.00 in0.0 mm 0.15 in3.8 mm
10:10 AM 62.8°F17.1°C 61.0°F16.1°C 94% 2.3 mph W3.7 kmh W 9.0 mph14.5 kmh 29.79 in1008.8 mb 0.01 in0.3 mm 0.12 in3.0 mm 0.16 in4.1 mm
10:15 AM 62.7°F17.1°C 61.2°F16.2°C 95% 1.0 mph WSW1.6 kmh WSW 7.0 mph11.3 kmh 29.79 in1008.8 mb 0.01 in0.3 mm 0.00 in0.0 mm 0.16 in4.1 mm
10:20 AM 62.7°F17.1°C 61.2°F16.2°C 95% 2.3 mph WSW3.7 kmh WSW 5.0 mph8.0 kmh 29.79 in1008.8 mb 0.01 in0.3 mm 0.00 in0.0 mm 0.16 in4.1 mm
10:25 AM 62.7°F17.1°C 61.5°F16.4°C 96% 2.3 mph W3.7 kmh W 6.0 mph9.7 kmh 29.79 in1008.8 mb 0.01 in0.3 mm 0.00 in0.0 mm 0.16 in4.1 mm
10:30 AM 62.7°F17.1°C 61.2°F16.2°C 95% 2.3 mph W3.7 kmh W 6.0 mph9.7 kmh 29.80 in1009.1 mb 0.01 in0.3 mm 0.00 in0.0 mm 0.16 in4.1 mm
10:35 AM 62.7°F17.1°C 61.2°F16.2°C 95% 3.2 mph W5.1 kmh W 7.0 mph11.3 kmh 29.79 in1008.8 mb 0.01 in0.3 mm 0.00 in0.0 mm 0.16 in4.1 mm
10:40 AM 62.8°F17.1°C 61.3°F16.3°C 95% 3.4 mph W5.5 kmh W 7.0 mph11.3 kmh 29.79 in1008.8 mb 0.01 in0.3 mm 0.00 in0.0 mm 0.16 in4.1 mm
10:45 AM 63.1°F17.3°C 61.6°F16.4°C 95% 3.7 mph W6.0 kmh W 7.0 mph11.3 kmh 29.79 in1008.8 mb 0.01 in0.3 mm 0.00 in0.0 mm 0.16 in4.1 mm
10:50 AM 63.7°F17.6°C 62.2°F16.8°C 95% 3.2 mph W5.1 kmh W 7.0 mph11.3 kmh 29.79 in1008.8 mb 0.01 in0.3 mm 0.00 in0.0 mm 0.16 in4.1 mm
10:55 AM 64.3°F17.9°C 62.2°F16.8°C 93% 4.3 mph WSW6.9 kmh WSW 9.0 mph14.5 kmh 29.79 in1008.8 mb 0.01 in0.3 mm 0.00 in0.0 mm 0.16 in4.1 mm
11:00 AM 65.0°F18.3°C 62.9°F17.2°C 93% 1.3 mph WSW2.1 kmh WSW 9.0 mph14.5 kmh 29.79 in1008.8 mb 0.01 in0.3 mm 0.00 in0.0 mm 0.16 in4.1 mm
11:05 AM 65.4°F18.6°C 62.1°F16.7°C 89% 3.9 mph WSW6.3 kmh WSW 10.0 mph16.1 kmh 29.79 in1008.8 mb 0.01 in0.3 mm 0.00 in0.0 mm 0.16 in4.1 mm
11:10 AM 65.5°F18.6°C 61.8°F16.6°C 88% 5.6 mph WSW9.0 kmh WSW 11.0 mph17.7 kmh 29.79 in1008.8 mb 0.00 in0.0 mm 0.00 in0.0 mm 0.16 in4.1 mm
11:15 AM 65.6°F18.7°C 61.3°F16.3°C 86% 5.6 mph W9.0 kmh W 14.0 mph22.5 kmh 29.79 in1008.8 mb 0.00 in0.0 mm 0.00 in0.0 mm 0.16 in4.1 mm
11:20 AM 66.0°F18.9°C 61.1°F16.2°C 84% 6.0 mph W9.7 kmh W 15.0 mph24.1 kmh 29.79 in1008.8 mb 0.00 in0.0 mm 0.00 in0.0 mm 0.16 in4.1 mm
11:25 AM 66.4°F19.1°C 60.7°F15.9°C 82% 5.8 mph W9.3 kmh W 15.0 mph24.1 kmh 29.79 in1008.8 mb 0.00 in0.0 mm 0.00 in0.0 mm 0.16 in4.1 mm
11:30 AM 66.8°F19.3°C 60.8°F16.0°C 81% 6.3 mph W10.1 kmh W 15.0 mph24.1 kmh 29.79 in1008.8 mb 0.00 in0.0 mm 0.00 in0.0 mm 0.16 in4.1 mm
11:35 AM 66.7°F19.3°C 60.7°F15.9°C 81% 4.7 mph W7.6 kmh W 15.0 mph24.1 kmh 29.78 in1008.5 mb 0.00 in0.0 mm 0.00 in0.0 mm 0.16 in4.1 mm
11:40 AM 67.1°F19.5°C 60.8°F16.0°C 80% 3.2 mph WSW5.1 kmh WSW 11.0 mph17.7 kmh 29.78 in1008.5 mb 0.00 in0.0 mm 0.00 in0.0 mm 0.16 in4.1 mm
11:45 AM 67.5°F19.7°C 61.2°F16.2°C 80% 4.9 mph WNW7.9 kmh WNW 11.0 mph17.7 kmh 29.78 in1008.5 mb 0.00 in0.0 mm 0.00 in0.0 mm 0.16 in4.1 mm
11:50 AM 67.4°F19.7°C 60.7°F15.9°C 79% 6.6 mph W10.6 kmh W 11.0 mph17.7 kmh 29.78 in1008.5 mb 0.00 in0.0 mm 0.00 in0.0 mm 0.16 in4.1 mm
11:55 AM 67.9°F19.9°C 60.2°F15.7°C 76% 5.9 mph WSW9.5 kmh WSW 11.0 mph17.7 kmh 29.78 in1008.5 mb 0.00 in0.0 mm 0.00 in0.0 mm 0.16 in4.1 mm
12:00 PM 67.9°F19.9°C 60.2°F15.7°C 76% 7.1 mph WSW11.4 kmh WSW 11.0 mph17.7 kmh 29.78 in1008.5 mb 0.00 in0.0 mm 0.00 in0.0 mm 0.16 in4.1 mm
12:05 PM 67.9°F19.9°C 59.4°F15.2°C 74% 4.7 mph WSW7.6 kmh WSW 11.0 mph17.7 kmh 29.78 in1008.5 mb 0.00 in0.0 mm 0.00 in0.0 mm 0.16 in4.1 mm
12:10 PM 68.0°F20.0°C 59.5°F15.3°C 74% 6.3 mph W10.1 kmh W 14.0 mph22.5 kmh 29.78 in1008.5 mb 0.00 in0.0 mm 0.00 in0.0 mm 0.16 in4.1 mm
12:15 PM 67.8°F19.9°C 58.6°F14.8°C 72% 8.2 mph W13.2 kmh W 14.0 mph22.5 kmh 29.78 in1008.5 mb 0.00 in0.0 mm 0.00 in0.0 mm 0.16 in4.1 mm
12:20 PM 67.5°F19.7°C 57.9°F14.4°C 71% 9.4 mph WNW15.1 kmh WNW 15.0 mph24.1 kmh 29.77 in1008.1 mb 0.00 in0.0 mm 0.00 in0.0 mm 0.16 in4.1 mm
12:25 PM 67.5°F19.7°C 58.7°F14.8°C 73% 7.2 mph W11.6 kmh W 15.0 mph24.1 kmh 29.78 in1008.5 mb 0.00 in0.0 mm 0.00 in0.0 mm 0.16 in4.1 mm
12:31 PM 67.8°F19.9°C 59.0°F15.0°C 73% 4.6 mph W7.4 kmh W 15.0 mph24.1 kmh 29.78 in1008.5 mb 0.00 in0.0 mm 0.00 in0.0 mm 0.16 in4.1 mm
12:36 PM 68.1°F20.1°C 58.9°F14.9°C 72% 5.2 mph W8.4 kmh W 15.0 mph24.1 kmh 29.78 in1008.5 mb 0.00 in0.0 mm 0.00 in0.0 mm 0.16 in4.1 mm
12:41 PM 68.4°F20.2°C 58.6°F14.8°C 71% 6.3 mph W10.1 kmh W 14.0 mph22.5 kmh 29.77 in1008.1 mb 0.00 in0.0 mm 0.00 in0.0 mm 0.16 in4.1 mm
12:46 PM 68.9°F20.5°C 59.1°F15.1°C 71% 4.9 mph WSW7.9 kmh WSW 12.0 mph19.3 kmh 29.76 in1007.8 mb 0.00 in0.0 mm 0.00 in0.0 mm 0.16 in4.1 mm
12:51 PM 69.2°F20.7°C 59.0°F15.0°C 70% 3.5 mph WSW5.6 kmh WSW 10.0 mph16.1 kmh 29.75 in1007.5 mb 0.00 in0.0 mm 0.00 in0.0 mm 0.16 in4.1 mm
12:56 PM 69.3°F20.7°C 59.5°F15.3°C 71% 2.9 mph W4.7 kmh W 10.0 mph16.1 kmh 29.75 in1007.5 mb 0.00 in0.0 mm 0.00 in0.0 mm 0.16 in4.1 mm
01:01 PM 69.0°F20.6°C 59.0°F15.0°C 70% 4.2 mph W6.8 kmh W 9.0 mph14.5 kmh 29.75 in1007.5 mb 0.00 in0.0 mm 0.00 in0.0 mm 0.16 in4.1 mm
01:06 PM 69.5°F20.8°C 59.5°F15.3°C 70% 2.8 mph WSW4.5 kmh WSW 8.0 mph12.9 kmh 29.75 in1007.5 mb 0.00 in0.0 mm 0.00 in0.0 mm 0.16 in4.1 mm
01:11 PM 69.1°F20.6°C 59.1°F15.1°C 70% 3.7 mph W6.0 kmh W 8.0 mph12.9 kmh 29.75 in1007.5 mb 0.00 in0.0 mm 0.00 in0.0 mm 0.16 in4.1 mm
01:16 PM 69.6°F20.9°C 59.6°F15.3°C 70% 4.5 mph W7.2 kmh W 8.0 mph12.9 kmh 29.75 in1007.5 mb 0.00 in0.0 mm 0.00 in0.0 mm 0.16 in4.1 mm
01:21 PM 69.3°F20.7°C 58.9°F14.9°C 69% 5.4 mph WNW8.7 kmh WNW 11.0 mph17.7 kmh 29.75 in1007.5 mb 0.00 in0.0 mm 0.00 in0.0 mm 0.16 in4.1 mm
01:26 PM 69.5°F20.8°C 59.1°F15.1°C 69% 3.5 mph W5.6 kmh W 11.0 mph17.7 kmh 29.75 in1007.5 mb 0.00 in0.0 mm 0.00 in0.0 mm 0.16 in4.1 mm
01:31 PM 69.4°F20.8°C 59.4°F15.2°C 70% 3.8 mph WNW6.1 kmh WNW 11.0 mph17.7 kmh 29.75 in1007.5 mb 0.00 in0.0 mm 0.00 in0.0 mm 0.16 in4.1 mm
01:36 PM 69.4°F20.8°C 59.0°F15.0°C 69% 4.4 mph WNW7.1 kmh WNW 11.0 mph17.7 kmh 29.74 in1007.1 mb 0.00 in0.0 mm 0.00 in0.0 mm 0.16 in4.1 mm
01:41 PM 69.2°F20.7°C 59.2°F15.1°C 70% 3.9 mph NW6.3 kmh NW 10.0 mph16.1 kmh 29.74 in1007.1 mb 0.00 in0.0 mm 0.00 in0.0 mm 0.16 in4.1 mm
01:46 PM 69.3°F20.7°C 58.9°F14.9°C 69% 3.6 mph WNW5.8 kmh WNW 10.0 mph16.1 kmh 29.74 in1007.1 mb 0.00 in0.0 mm 0.00 in0.0 mm 0.16 in4.1 mm
01:51 PM 69.4°F20.8°C 59.0°F15.0°C 69% 4.9 mph WNW7.9 kmh WNW 13.0 mph20.9 kmh 29.75 in1007.5 mb 0.00 in0.0 mm 0.00 in0.0 mm 0.16 in4.1 mm
01:56 PM 69.1°F20.6°C 58.7°F14.8°C 69% 2.0 mph WNW3.2 kmh WNW 13.0 mph20.9 kmh 29.74 in1007.1 mb 0.00 in0.0 mm 0.00 in0.0 mm 0.16 in4.1 mm
02:01 PM 69.1°F20.6°C 57.9°F14.4°C 67% 6.3 mph NW10.1 kmh NW 13.0 mph20.9 kmh 29.75 in1007.5 mb 0.00 in0.0 mm 0.00 in0.0 mm 0.16 in4.1 mm
02:06 PM 69.1°F20.6°C 57.9°F14.4°C 67% 4.0 mph NW6.4 kmh NW 13.0 mph20.9 kmh 29.74 in1007.1 mb 0.00 in0.0 mm 0.00 in0.0 mm 0.16 in4.1 mm
02:11 PM 69.6°F20.9°C 58.8°F14.9°C 68% 3.7 mph NW6.0 kmh NW 12.0 mph19.3 kmh 29.74 in1007.1 mb 0.00 in0.0 mm 0.00 in0.0 mm 0.16 in4.1 mm
02:15 PM 69.5°F20.8°C 58.2°F14.6°C 67% 6.5 mph WNW10.5 kmh WNW 12.0 mph19.3 kmh 29.74 in1007.1 mb 0.00 in0.0 mm 0.00 in0.0 mm 0.16 in4.1 mm
02:20 PM 69.4°F20.8°C 58.2°F14.6°C 67% 4.5 mph W7.2 kmh W 12.0 mph19.3 kmh 29.74 in1007.1 mb 0.00 in0.0 mm 0.00 in0.0 mm 0.16 in4.1 mm
02:25 PM 69.6°F20.9°C 58.8°F14.9°C 68% 3.6 mph NW5.8 kmh NW 13.0 mph20.9 kmh 29.74 in1007.1 mb 0.00 in0.0 mm 0.00 in0.0 mm 0.16 in4.1 mm
02:30 PM 69.5°F20.8°C 57.8°F14.3°C 66% 3.6 mph W5.8 kmh W 13.0 mph20.9 kmh 29.74 in1007.1 mb 0.00 in0.0 mm 0.00 in0.0 mm 0.16 in4.1 mm
02:35 PM 69.5°F20.8°C 57.8°F14.3°C 66% 6.8 mph WNW10.9 kmh WNW 13.0 mph20.9 kmh 29.74 in1007.1 mb 0.00 in0.0 mm 0.00 in0.0 mm 0.16 in4.1 mm
02:40 PM 69.5°F20.8°C 57.6°F14.2°C 66% 5.6 mph W9.0 kmh W 13.0 mph20.9 kmh 29.74 in1007.1 mb 0.00 in0.0 mm 0.00 in0.0 mm 0.16 in4.1 mm
02:45 PM 69.7°F20.9°C 58.3°F14.6°C 67% 3.2 mph NW5.1 kmh NW 12.0 mph19.3 kmh 29.74 in1007.1 mb 0.00 in0.0 mm 0.00 in0.0 mm 0.16 in4.1 mm
02:50 PM 69.7°F20.9°C 57.8°F14.3°C 66% 1.8 mph W2.9 kmh W 12.0 mph19.3 kmh 29.74 in1007.1 mb 0.00 in0.0 mm 0.00 in0.0 mm 0.16 in4.1 mm
02:55 PM 69.6°F20.9°C 57.7°F14.3°C 66% 3.8 mph WNW6.1 kmh WNW 12.0 mph19.3 kmh 29.74 in1007.1 mb 0.00 in0.0 mm 0.00 in0.0 mm 0.16 in4.1 mm
03:00 PM 69.4°F20.8°C 58.2°F14.6°C 67% 3.7 mph NW6.0 kmh NW 9.0 mph14.5 kmh 29.74 in1007.1 mb 0.00 in0.0 mm 0.00 in0.0 mm 0.16 in4.1 mm
03:05 PM 69.3°F20.7°C 57.9°F14.4°C 67% 4.3 mph NW6.9 kmh NW 9.0 mph14.5 kmh 29.75 in1007.5 mb 0.00 in0.0 mm 0.00 in0.0 mm 0.16 in4.1 mm
03:10 PM 69.4°F20.8°C 58.0°F14.4°C 67% 4.6 mph NW7.4 kmh NW 9.0 mph14.5 kmh 29.74 in1007.1 mb 0.00 in0.0 mm 0.00 in0.0 mm 0.16 in4.1 mm
03:15 PM 69.2°F20.7°C 58.0°F14.4°C 67% 5.2 mph WNW8.4 kmh WNW 9.0 mph14.5 kmh 29.74 in1007.1 mb 0.00 in0.0 mm 0.00 in0.0 mm 0.16 in4.1 mm
03:20 PM 69.6°F20.9°C 58.3°F14.6°C 67% 4.2 mph W6.8 kmh W 9.0 mph14.5 kmh 29.74 in1007.1 mb 0.00 in0.0 mm 0.00 in0.0 mm 0.16 in4.1 mm
03:25 PM 69.3°F20.7°C 58.1°F14.5°C 67% 4.4 mph W7.1 kmh W 9.0 mph14.5 kmh 29.73 in1006.8 mb 0.00 in0.0 mm 0.00 in0.0 mm 0.16 in4.1 mm
03:30 PM 69.5°F20.8°C 58.7°F14.8°C 68% 2.3 mph NW3.7 kmh NW 9.0 mph14.5 kmh 29.73 in1006.8 mb 0.00 in0.0 mm 0.00 in0.0 mm 0.16 in4.1 mm
03:35 PM 69.6°F20.9°C 58.8°F14.9°C 68% Calm Calm 9.0 mph14.5 kmh 29.74 in1007.1 mb 0.00 in0.0 mm 0.00 in0.0 mm 0.16 in4.1 mm
03:40 PM 69.6°F20.9°C 58.8°F14.9°C 68% 1.5 mph WNW2.4 kmh WNW 9.0 mph14.5 kmh 29.74 in1007.1 mb 0.00 in0.0 mm 0.00 in0.0 mm 0.16 in4.1 mm
03:45 PM 69.5°F20.8°C 58.1°F14.5°C 67% 3.7 mph NW6.0 kmh NW 7.0 mph11.3 kmh 29.74 in1007.1 mb 0.00 in0.0 mm 0.00 in0.0 mm 0.16 in4.1 mm
03:50 PM 69.5°F20.8°C 58.7°F14.8°C 68% 3.2 mph NW5.1 kmh NW 7.0 mph11.3 kmh 29.74 in1007.1 mb 0.00 in0.0 mm 0.00 in0.0 mm 0.16 in4.1 mm
03:55 PM 69.7°F20.9°C 58.4°F14.7°C 67% 4.2 mph W6.8 kmh W 8.0 mph12.9 kmh 29.75 in1007.5 mb 0.00 in0.0 mm 0.00 in0.0 mm 0.16 in4.1 mm
04:00 PM 69.7°F20.9°C 58.4°F14.7°C 67% 4.1 mph NW6.6 kmh NW 8.0 mph12.9 kmh 29.75 in1007.5 mb 0.00 in0.0 mm 0.00 in0.0 mm 0.16 in4.1 mm
04:05 PM 69.7°F20.9°C 58.0°F14.4°C 66% 2.9 mph NW4.7 kmh NW 8.0 mph12.9 kmh 29.75 in1007.5 mb 0.00 in0.0 mm 0.00 in0.0 mm 0.16 in4.1 mm
04:10 PM 69.6°F20.9°C 58.3°F14.6°C 67% 3.6 mph WNW5.8 kmh WNW 8.0 mph12.9 kmh 29.75 in1007.5 mb 0.00 in0.0 mm 0.00 in0.0 mm 0.16 in4.1 mm
04:15 PM 69.4°F20.8°C 58.2°F14.6°C 67% 3.1 mph WNW5.0 kmh WNW 8.0 mph12.9 kmh 29.74 in1007.1 mb 0.00 in0.0 mm 0.00 in0.0 mm 0.16 in4.1 mm
04:20 PM 69.8°F21.0°C 58.5°F14.7°C 67% 3.0 mph WNW4.8 kmh WNW 7.0 mph11.3 kmh 29.75 in1007.5 mb 0.00 in0.0 mm 0.00 in0.0 mm 0.16 in4.1 mm
04:25 PM 70.0°F21.1°C 58.3°F14.6°C 66% 2.1 mph WNW3.4 kmh WNW 7.0 mph11.3 kmh 29.75 in1007.5 mb 0.00 in0.0 mm 0.00 in0.0 mm 0.16 in4.1 mm
04:30 PM 70.3°F21.3°C 58.6°F14.8°C 66% 3.8 mph NW6.1 kmh NW 9.0 mph14.5 kmh 29.75 in1007.5 mb 0.00 in0.0 mm 0.00 in0.0 mm 0.16 in4.1 mm
04:35 PM 70.2°F21.2°C 58.9°F14.9°C 67% 3.0 mph WSW4.8 kmh WSW 9.0 mph14.5 kmh 29.75 in1007.5 mb 0.00 in0.0 mm 0.00 in0.0 mm 0.16 in4.1 mm
04:40 PM 70.4°F21.3°C 58.3°F14.6°C 65% 6.8 mph W10.9 kmh W 11.0 mph17.7 kmh 29.75 in1007.5 mb 0.00 in0.0 mm 0.00 in0.0 mm 0.16 in4.1 mm
04:45 PM 70.4°F21.3°C 57.8°F14.3°C 64% 4.3 mph WNW6.9 kmh WNW 11.0 mph17.7 kmh 29.75 in1007.5 mb 0.00 in0.0 mm 0.00 in0.0 mm 0.16 in4.1 mm
04:50 PM 70.4°F21.3°C 57.8°F14.3°C 64% 3.1 mph W5.0 kmh W 11.0 mph17.7 kmh 29.75 in1007.5 mb 0.00 in0.0 mm 0.00 in0.0 mm 0.16 in4.1 mm
04:55 PM 70.4°F21.3°C 57.8°F14.3°C 64% 5.4 mph WNW8.7 kmh WNW 11.0 mph17.7 kmh 29.75 in1007.5 mb 0.00 in0.0 mm 0.00 in0.0 mm 0.16 in4.1 mm
05:00 PM 70.2°F21.2°C 57.6°F14.2°C 64% 5.5 mph WNW8.9 kmh WNW 9.0 mph14.5 kmh 29.75 in1007.5 mb 0.00 in0.0 mm 0.00 in0.0 mm 0.16 in4.1 mm
05:05 PM 70.1°F21.2°C 58.0°F14.4°C 65% 3.6 mph NW5.8 kmh NW 9.0 mph14.5 kmh 29.76 in1007.8 mb 0.00 in0.0 mm 0.00 in0.0 mm 0.16 in4.1 mm
05:10 PM 70.1°F21.2°C 57.5°F14.2°C 64% 5.2 mph WNW8.4 kmh WNW 10.0 mph16.1 kmh 29.76 in1007.8 mb 0.00 in0.0 mm 0.00 in0.0 mm 0.16 in4.1 mm
05:15 PM 70.1°F21.2°C 57.5°F14.2°C 64% 2.7 mph NW4.3 kmh NW 10.0 mph16.1 kmh 29.76 in1007.8 mb 0.00 in0.0 mm 0.00 in0.0 mm 0.16 in4.1 mm
05:20 PM 69.9°F21.1°C 57.4°F14.1°C 64% 3.2 mph WNW5.1 kmh WNW 10.0 mph16.1 kmh 29.76 in1007.8 mb 0.00 in0.0 mm 0.00 in0.0 mm 0.16 in4.1 mm
05:25 PM 69.9°F21.1°C 57.4°F14.1°C 64% 3.7 mph NW6.0 kmh NW 10.0 mph16.1 kmh 29.76 in1007.8 mb 0.00 in0.0 mm 0.00 in0.0 mm 0.16 in4.1 mm
05:30 PM 69.8°F21.0°C 57.3°F14.1°C 64% 4.7 mph WNW7.6 kmh WNW 9.0 mph14.5 kmh 29.76 in1007.8 mb 0.00 in0.0 mm 0.00 in0.0 mm 0.16 in4.1 mm
05:35 PM 69.7°F20.9°C 57.6°F14.2°C 65% 2.7 mph W4.3 kmh W 9.0 mph14.5 kmh 29.76 in1007.8 mb 0.00 in0.0 mm 0.00 in0.0 mm 0.16 in4.1 mm
05:40 PM 69.6°F20.9°C 57.5°F14.2°C 65% 3.5 mph WNW5.6 kmh WNW 9.0 mph14.5 kmh 29.76 in1007.8 mb 0.00 in0.0 mm 0.00 in0.0 mm 0.16 in4.1 mm
05:45 PM 69.3°F20.7°C 57.2°F14.0°C 65% 4.1 mph WNW6.6 kmh WNW 9.0 mph14.5 kmh 29.77 in1008.1 mb 0.00 in0.0 mm 0.00 in0.0 mm 0.16 in4.1 mm
05:50 PM 69.1°F20.6°C 57.0°F13.9°C 65% 3.3 mph WNW5.3 kmh WNW 8.0 mph12.9 kmh 29.77 in1008.1 mb 0.00 in0.0 mm 0.00 in0.0 mm 0.16 in4.1 mm
05:55 PM 68.8°F20.4°C 57.2°F14.0°C 66% 2.2 mph WNW3.5 kmh WNW 8.0 mph12.9 kmh 29.77 in1008.1 mb 0.00 in0.0 mm 0.00 in0.0 mm 0.16 in4.1 mm
06:00 PM 68.6°F20.3°C 57.0°F13.9°C 66% 3.0 mph WNW4.8 kmh WNW 8.0 mph12.9 kmh 29.77 in1008.1 mb 0.00 in0.0 mm 0.00 in0.0 mm 0.16 in4.1 mm
06:05 PM 68.5°F20.3°C 56.9°F13.8°C 66% 1.1 mph NW1.8 kmh NW 7.0 mph11.3 kmh 29.77 in1008.1 mb 0.00 in0.0 mm 0.00 in0.0 mm 0.16 in4.1 mm
06:10 PM 68.2°F20.1°C 57.0°F13.9°C 67% 1.0 mph W1.6 kmh W 6.0 mph9.7 kmh 29.77 in1008.1 mb 0.00 in0.0 mm 0.00 in0.0 mm 0.16 in4.1 mm
06:15 PM 68.1°F20.1°C 56.9°F13.8°C 67% 1.1 mph W1.8 kmh W 6.0 mph9.7 kmh 29.78 in1008.5 mb 0.00 in0.0 mm 0.00 in0.0 mm 0.16 in4.1 mm
06:20 PM 67.9°F19.9°C 56.7°F13.7°C 67% 1.0 mph W1.6 kmh W 6.0 mph9.7 kmh 29.78 in1008.5 mb 0.00 in0.0 mm 0.00 in0.0 mm 0.16 in4.1 mm
06:25 PM 67.7°F19.8°C 56.9°F13.8°C 68% 1.0 mph W1.6 kmh W 3.0 mph4.8 kmh 29.78 in1008.5 mb 0.00 in0.0 mm 0.00 in0.0 mm 0.16 in4.1 mm
06:30 PM 67.5°F19.7°C 56.7°F13.7°C 68% 1.0 mph W1.6 kmh W 2.0 mph3.2 kmh 29.78 in1008.5 mb 0.00 in0.0 mm 0.00 in0.0 mm 0.16 in4.1 mm
06:35 PM 67.2°F19.6°C 56.9°F13.8°C 69% Calm Calm 1.0 mph1.6 kmh 29.78 in1008.5 mb 0.00 in0.0 mm 0.00 in0.0 mm 0.16 in4.1 mm
06:40 PM 66.9°F19.4°C 56.6°F13.7°C 69% 1.0 mph W1.6 kmh W 1.0 mph1.6 kmh 29.78 in1008.5 mb 0.00 in0.0 mm 0.00 in0.0 mm 0.16 in4.1 mm
06:45 PM 66.7°F19.3°C 56.4°F13.6°C 69% Calm Calm 1.0 mph1.6 kmh 29.78 in1008.5 mb 0.00 in0.0 mm 0.00 in0.0 mm 0.16 in4.1 mm
06:50 PM 66.5°F19.2°C 56.6°F13.7°C 70% Calm Calm 1.0 mph1.6 kmh 29.78 in1008.5 mb 0.00 in0.0 mm 0.00 in0.0 mm 0.16 in4.1 mm
06:55 PM 66.3°F19.1°C 56.4°F13.6°C 70% Calm Calm 1.0 mph1.6 kmh 29.79 in1008.8 mb 0.00 in0.0 mm 0.00 in0.0 mm 0.16 in4.1 mm
07:00 PM 66.2°F19.0°C 56.3°F13.5°C 70% 1.0 mph W1.6 kmh W 1.0 mph1.6 kmh 29.80 in1009.1 mb 0.00 in0.0 mm 0.00 in0.0 mm 0.16 in4.1 mm
07:05 PM 66.0°F18.9°C 56.5°F13.6°C 71% 1.0 mph W1.6 kmh W 1.0 mph1.6 kmh 29.79 in1008.8 mb 0.00 in0.0 mm 0.00 in0.0 mm 0.16 in4.1 mm
07:10 PM 66.0°F18.9°C 56.5°F13.6°C 71% 1.0 mph W1.6 kmh W 1.0 mph1.6 kmh 29.79 in1008.8 mb 0.00 in0.0 mm 0.00 in0.0 mm 0.16 in4.1 mm
07:15 PM 65.9°F18.8°C 56.2°F13.4°C 71% 1.0 mph W1.6 kmh W 1.0 mph1.6 kmh 29.79 in1008.8 mb 0.00 in0.0 mm 0.00 in0.0 mm 0.16 in4.1 mm
07:20 PM 65.7°F18.7°C 56.0°F13.3°C 71% 1.0 mph W1.6 kmh W 1.0 mph1.6 kmh 29.80 in1009.1 mb 0.00 in0.0 mm 0.00 in0.0 mm 0.16 in4.1 mm
07:25 PM 65.6°F18.7°C 56.1°F13.4°C 71% 1.0 mph W1.6 kmh W 1.0 mph1.6 kmh 29.79 in1008.8 mb 0.00 in0.0 mm 0.00 in0.0 mm 0.16 in4.1 mm
07:30 PM 65.4°F18.6°C 56.1°F13.4°C 72% 4.2 mph NNW6.8 kmh NNW 9.0 mph14.5 kmh 29.80 in1009.1 mb 0.00 in0.0 mm 0.00 in0.0 mm 0.16 in4.1 mm
07:35 PM 64.1°F17.8°C 55.3°F12.9°C 73% 2.4 mph NNW3.9 kmh NNW 9.0 mph14.5 kmh 29.80 in1009.1 mb 0.00 in0.0 mm 0.00 in0.0 mm 0.16 in4.1 mm
07:40 PM 63.3°F17.4°C 55.2°F12.9°C 75% 1.6 mph N2.6 kmh N 9.0 mph14.5 kmh 29.80 in1009.1 mb 0.00 in0.0 mm 0.00 in0.0 mm 0.16 in4.1 mm
07:45 PM 62.8°F17.1°C 55.6°F13.1°C 77% 2.0 mph 3.2 kmh 9.0 mph14.5 kmh 29.80 in1009.1 mb 0.00 in0.0 mm 0.00 in0.0 mm 0.16 in4.1 mm
07:50 PM 62.4°F16.9°C 55.2°F12.9°C 77% 3.6 mph NE5.8 kmh NE 8.0 mph12.9 kmh 29.80 in1009.1 mb 0.00 in0.0 mm 0.00 in0.0 mm 0.16 in4.1 mm
07:55 PM 62.0°F16.7°C 54.8°F12.7°C 77% 3.7 mph NNE6.0 kmh NNE 7.0 mph11.3 kmh 29.81 in1009.5 mb 0.00 in0.0 mm 0.00 in0.0 mm 0.16 in4.1 mm
08:00 PM 61.7°F16.5°C 54.8°F12.7°C 78% 3.3 mph NNE5.3 kmh NNE 8.0 mph12.9 kmh 29.81 in1009.5 mb 0.00 in0.0 mm 0.00 in0.0 mm 0.16 in4.1 mm
08:05 PM 61.3°F16.3°C 54.4°F12.4°C 78% 3.0 mph NNE4.8 kmh NNE 8.0 mph12.9 kmh 29.81 in1009.5 mb 0.00 in0.0 mm 0.00 in0.0 mm 0.16 in4.1 mm
08:10 PM 61.1°F16.2°C 53.8°F12.1°C 77% 3.8 mph N6.1 kmh N 8.0 mph12.9 kmh 29.81 in1009.5 mb 0.00 in0.0 mm 0.00 in0.0 mm 0.16 in4.1 mm
08:14 PM 60.8°F16.0°C 53.9°F12.2°C 78% 2.3 mph N3.7 kmh N 8.0 mph12.9 kmh 29.81 in1009.5 mb 0.00 in0.0 mm 0.00 in0.0 mm 0.16 in4.1 mm
08:19 PM 60.5°F15.8°C 53.6°F12.0°C 78% 2.2 mph N3.5 kmh N 7.0 mph11.3 kmh 29.82 in1009.8 mb 0.00 in0.0 mm 0.00 in0.0 mm 0.16 in4.1 mm
08:24 PM 60.2°F15.7°C 53.7°F12.1°C 79% 2.6 mph N4.2 kmh N 7.0 mph11.3 kmh 29.82 in1009.8 mb 0.00 in0.0 mm 0.00 in0.0 mm 0.16 in4.1 mm
08:29 PM 59.9°F15.5°C 53.4°F11.9°C 79% 1.8 mph N2.9 kmh N 6.0 mph9.7 kmh 29.82 in1009.8 mb 0.00 in0.0 mm 0.00 in0.0 mm 0.16 in4.1 mm
08:34 PM 59.7°F15.4°C 53.2°F11.8°C 79% 2.4 mph N3.9 kmh N 6.0 mph9.7 kmh 29.82 in1009.8 mb 0.00 in0.0 mm 0.00 in0.0 mm 0.16 in4.1 mm
08:39 PM 59.5°F15.3°C 53.3°F11.8°C 80% 1.7 mph N2.7 kmh N 6.0 mph9.7 kmh 29.83 in1010.2 mb 0.00 in0.0 mm 0.00 in0.0 mm 0.16 in4.1 mm
08:44 PM 59.2°F15.1°C 53.0°F11.7°C 80% 1.4 mph NNW2.3 kmh NNW 6.0 mph9.7 kmh 29.83 in1010.2 mb 0.00 in0.0 mm 0.00 in0.0 mm 0.16 in4.1 mm
08:49 PM 59.0°F15.0°C 52.8°F11.6°C 80% 2.3 mph N3.7 kmh N 5.0 mph8.0 kmh 29.83 in1010.2 mb 0.00 in0.0 mm 0.00 in0.0 mm 0.16 in4.1 mm
08:54 PM 58.8°F14.9°C 53.0°F11.7°C 81% 1.5 mph N2.4 kmh N 5.0 mph8.0 kmh 29.83 in1010.2 mb 0.00 in0.0 mm 0.00 in0.0 mm 0.16 in4.1 mm
08:59 PM 58.6°F14.8°C 52.8°F11.6°C 81% 2.6 mph NNE4.2 kmh NNE 6.0 mph9.7 kmh 29.83 in1010.2 mb 0.00 in0.0 mm 0.00 in0.0 mm 0.16 in4.1 mm
09:04 PM 58.4°F14.7°C 52.6°F11.4°C 81% 2.0 mph N3.2 kmh N 6.0 mph9.7 kmh 29.83 in1010.2 mb 0.00 in0.0 mm 0.00 in0.0 mm 0.16 in4.1 mm
09:09 PM 58.2°F14.6°C 52.4°F11.3°C 81% 2.3 mph N3.7 kmh N 6.0 mph9.7 kmh 29.83 in1010.2 mb 0.00 in0.0 mm 0.00 in0.0 mm 0.16 in4.1 mm
09:14 PM 58.0°F14.4°C 52.6°F11.4°C 82% 2.4 mph NNE3.9 kmh NNE 7.0 mph11.3 kmh 29.84 in1010.5 mb 0.00 in0.0 mm 0.00 in0.0 mm 0.16 in4.1 mm
09:19 PM 57.8°F14.3°C 52.4°F11.3°C 82% 3.1 mph NNE5.0 kmh NNE 7.0 mph11.3 kmh 29.84 in1010.5 mb 0.00 in0.0 mm 0.00 in0.0 mm 0.16 in4.1 mm
09:24 PM 57.6°F14.2°C 52.2°F11.2°C 82% 2.2 mph NNE3.5 kmh NNE 7.0 mph11.3 kmh 29.84 in1010.5 mb 0.00 in0.0 mm 0.00 in0.0 mm 0.16 in4.1 mm
09:29 PM 57.4°F14.1°C 52.3°F11.3°C 83% 1.5 mph NNE2.4 kmh NNE 7.0 mph11.3 kmh 29.84 in1010.5 mb 0.00 in0.0 mm 0.00 in0.0 mm 0.16 in4.1 mm
09:34 PM 57.1°F13.9°C 52.0°F11.1°C 83% 1.4 mph NNE2.3 kmh NNE 6.0 mph9.7 kmh 29.84 in1010.5 mb 0.00 in0.0 mm 0.00 in0.0 mm 0.16 in4.1 mm
09:39 PM 56.9°F13.8°C 51.8°F11.0°C 83% 1.4 mph NNE2.3 kmh NNE 4.0 mph6.4 kmh 29.84 in1010.5 mb 0.00 in0.0 mm 0.00 in0.0 mm 0.16 in4.1 mm
09:44 PM 56.7°F13.7°C 51.9°F11.1°C 84% 1.4 mph N2.3 kmh N 4.0 mph6.4 kmh 29.84 in1010.5 mb 0.00 in0.0 mm 0.00 in0.0 mm 0.16 in4.1 mm
09:49 PM 56.4°F13.6°C 51.6°F10.9°C 84% 1.6 mph N2.6 kmh N 4.0 mph6.4 kmh 29.85 in1010.8 mb 0.00 in0.0 mm 0.00 in0.0 mm 0.16 in4.1 mm
09:54 PM 56.2°F13.4°C 51.8°F11.0°C 85% 2.4 mph N3.9 kmh N 5.0 mph8.0 kmh 29.85 in1010.8 mb 0.00 in0.0 mm 0.00 in0.0 mm 0.16 in4.1 mm
09:59 PM 55.9°F13.3°C 51.5°F10.8°C 85% 2.9 mph N4.7 kmh N 6.0 mph9.7 kmh 29.85 in1010.8 mb 0.00 in0.0 mm 0.00 in0.0 mm 0.16 in4.1 mm
10:04 PM 55.8°F13.2°C 51.4°F10.8°C 85% 3.8 mph 6.1 kmh 9.0 mph14.5 kmh 29.85 in1010.8 mb 0.00 in0.0 mm 0.00 in0.0 mm 0.16 in4.1 mm
10:09 PM 55.7°F13.2°C 51.3°F10.7°C 85% 2.1 mph NNW3.4 kmh NNW 9.0 mph14.5 kmh 29.85 in1010.8 mb 0.00 in0.0 mm 0.00 in0.0 mm 0.16 in4.1 mm
10:14 PM 55.5°F13.1°C 51.1°F10.6°C 85% 2.1 mph N3.4 kmh N 9.0 mph14.5 kmh 29.86 in1011.2 mb 0.00 in0.0 mm 0.00 in0.0 mm 0.16 in4.1 mm
10:19 PM 55.3°F12.9°C 50.9°F10.5°C 85% 1.7 mph NNW2.7 kmh NNW 9.0 mph14.5 kmh 29.86 in1011.2 mb 0.00 in0.0 mm 0.00 in0.0 mm 0.16 in4.1 mm
10:24 PM 55.1°F12.8°C 51.0°F10.6°C 86% 3.7 mph NNW6.0 kmh NNW 8.0 mph12.9 kmh 29.87 in1011.5 mb 0.00 in0.0 mm 0.00 in0.0 mm 0.16 in4.1 mm
10:29 PM 54.9°F12.7°C 50.8°F10.4°C 86% 4.9 mph NNW7.9 kmh NNW 8.0 mph12.9 kmh 29.87 in1011.5 mb 0.00 in0.0 mm 0.00 in0.0 mm 0.16 in4.1 mm
10:34 PM 54.7°F12.6°C 50.6°F10.3°C 86% 3.7 mph NNW6.0 kmh NNW 8.0 mph12.9 kmh 29.88 in1011.9 mb 0.00 in0.0 mm 0.00 in0.0 mm 0.16 in4.1 mm
10:39 PM 54.5°F12.5°C 50.4°F10.2°C 86% 3.1 mph NNW5.0 kmh NNW 8.0 mph12.9 kmh 29.88 in1011.9 mb 0.00 in0.0 mm 0.00 in0.0 mm 0.16 in4.1 mm
10:44 PM 54.3°F12.4°C 50.2°F10.1°C 86% 1.9 mph NNW3.1 kmh NNW 8.0 mph12.9 kmh 29.88 in1011.9 mb 0.00 in0.0 mm 0.00 in0.0 mm 0.16 in4.1 mm
10:49 PM 54.2°F12.3°C 50.4°F10.2°C 87% 2.1 mph NW3.4 kmh NW 8.0 mph12.9 kmh 29.88 in1011.9 mb 0.00 in0.0 mm 0.00 in0.0 mm 0.16 in4.1 mm
10:54 PM 54.0°F12.2°C 50.2°F10.1°C 87% 1.9 mph NW3.1 kmh NW 8.0 mph12.9 kmh 29.88 in1011.9 mb 0.00 in0.0 mm 0.00 in0.0 mm 0.16 in4.1 mm
10:59 PM 53.8°F12.1°C 50.0°F10.0°C 87% 3.1 mph NNW5.0 kmh NNW 8.0 mph12.9 kmh 29.87 in1011.5 mb 0.00 in0.0 mm 0.00 in0.0 mm 0.16 in4.1 mm
11:04 PM 53.6°F12.0°C 49.8°F9.9°C 87% 2.9 mph NNW4.7 kmh NNW 7.0 mph11.3 kmh 29.87 in1011.5 mb 0.00 in0.0 mm 0.00 in0.0 mm 0.16 in4.1 mm
11:09 PM 53.5°F11.9°C 49.7°F9.8°C 87% 2.4 mph N3.9 kmh N 7.0 mph11.3 kmh 29.87 in1011.5 mb 0.00 in0.0 mm 0.00 in0.0 mm 0.16 in4.1 mm
11:14 PM 53.3°F11.8°C 49.8°F9.9°C 88% 1.3 mph NNE2.1 kmh NNE 7.0 mph11.3 kmh 29.86 in1011.2 mb 0.00 in0.0 mm 0.00 in0.0 mm 0.16 in4.1 mm
11:19 PM 53.2°F11.8°C 49.7°F9.8°C 88% 2.2 mph NNE3.5 kmh NNE 7.0 mph11.3 kmh 29.86 in1011.2 mb 0.00 in0.0 mm 0.00 in0.0 mm 0.16 in4.1 mm
11:24 PM 53.0°F11.7°C 49.5°F9.7°C 88% 1.6 mph N2.6 kmh N 5.0 mph8.0 kmh 29.86 in1011.2 mb 0.00 in0.0 mm 0.00 in0.0 mm 0.16 in4.1 mm
11:29 PM 52.8°F11.6°C 49.6°F9.8°C 89% 1.8 mph NNE2.9 kmh NNE 5.0 mph8.0 kmh 29.86 in1011.2 mb 0.00 in0.0 mm 0.00 in0.0 mm 0.16 in4.1 mm
11:34 PM 52.7°F11.5°C 49.5°F9.7°C 89% 1.6 mph N2.6 kmh N 5.0 mph8.0 kmh 29.86 in1011.2 mb 0.00 in0.0 mm 0.00 in0.0 mm 0.16 in4.1 mm
11:39 PM 52.5°F11.4°C 49.3°F9.6°C 89% 1.1 mph NW1.8 kmh NW 5.0 mph8.0 kmh 29.86 in1011.2 mb 0.00 in0.0 mm 0.00 in0.0 mm 0.16 in4.1 mm
11:45 PM 52.3°F11.3°C 49.4°F9.7°C 90% 2.5 mph NNW4.0 kmh NNW 6.0 mph9.7 kmh 29.87 in1011.5 mb 0.00 in0.0 mm 0.00 in0.0 mm 0.16 in4.1 mm
11:50 PM 52.2°F11.2°C 49.3°F9.6°C 90% 2.3 mph N3.7 kmh N 6.0 mph9.7 kmh 29.87 in1011.5 mb 0.00 in0.0 mm 0.00 in0.0 mm 0.16 in4.1 mm
11:55 PM 52.0°F11.1°C 49.1°F9.5°C 90% 2.0 mph NNE3.2 kmh NNE 6.0 mph9.7 kmh 29.87 in1011.5 mb 0.00 in0.0 mm 0.00 in0.0 mm 0.16 in4.1 mm